METAR AND TAF INFORMATION
METAR FOR DAAG
ADDS - METARS form results

(2318 UTC 28 January 2023)
Data provider http://aviationweather.gov/metar/data/
 
METAR text: DAAG 282300Z VRB01KT 8000 -RA SCT023TCU FEW026CB BKN053 07/06 Q1021
Conditions at: DAAG (DAR-EL-BEIDA/HOU, DZ) observed 2300 UTC 28 January 2023
Temperature: 7.0°C (45°F)
Dewpoint: 6.0°C (43°F) [RH = 93%]
Pressure (altimeter): 30.15 inches Hg (1021.0 mb)
Winds: variable direction winds at 1 MPH (1 knots; 0.5 m/s)
Visibility: 5 miles ( 8 km)
Ceiling: 5300 feet AGL
Clouds: scattered clouds at 2300 feet AGL
few clouds at 2600 feet AGL
broken clouds at 5300 feet AGL
Weather: -RA  (light rain)

METAR text: DAAG 282230Z 08003KT 050V120 8000 -RA SCT023TCU FEW026CB BKN053 07/06 Q1021
Conditions at: DAAG (DAR-EL-BEIDA/HOU, DZ) observed 2230 UTC 28 January 2023
Temperature: 7.0°C (45°F)
Dewpoint: 6.0°C (43°F) [RH = 93%]
Pressure (altimeter): 30.15 inches Hg (1021.0 mb)
Winds: from the E (80 degrees) at 3 MPH (3 knots; 1.5 m/s)
Visibility: 5 miles ( 8 km)
Ceiling: 5300 feet AGL
Clouds: scattered clouds at 2300 feet AGL
few clouds at 2600 feet AGL
broken clouds at 5300 feet AGL
Weather: -RA  (light rain)

Forecast for: DAAG (DAR-EL-BEIDA/HOU, DZ)
Text: TAF DAAG 281700Z 2818/2918 26006KT 8000 SCT023TCU FEW026CB BKN053
Forecast period: 1800 UTC 28 January 2023 to 1800 UTC 29 January 2023
Forecast type: FROM: standard forecast or significant change
Winds: from the W (260 degrees) at 7 MPH (6 knots; 3.1 m/s)
Visibility: 5 miles (8 km)
Ceiling: 5300 feet AGL
Clouds: scattered clouds at 2300 feet AGL
few clouds at 2600 feet AGL
broken clouds at 5300 feet AGL
Weather: no significant weather forecast for this period
Text: PROB40
Forecast period: 1800 UTC 28 January 2023 to 0600 UTC 29 January 2023
Forecast type: TEMPORARY: The following changes expected for less than half the time period
Visibility: 2.49 miles (4.01 km)
Ceiling: unknown
Clouds: missing
Weather: TSRA  (rain associated with thunderstorm(s))

 AIRPORT MAP

 RUNWAY INFORMATION
Runway 05 Runway length 11483 ft Runway width 197 ft
Runway elevation 72 ft Runway displaced threshold 0 ft Runway heading 53
Runway 23 Runway length 11483 ft Runway width 197 ft
Runway elevation 82 ft Runway displaced threshold 0 ft Runway heading 233
Runway 09 Runway length 11483 ft Runway width 148 ft
Runway elevation 56 ft Runway displaced threshold 0 ft Runway heading 92
Runway 27 Runway length 11483 ft Runway width 148 ft
Runway elevation 82 ft Runway displaced threshold 0 ft Runway heading 272

 AIRPORT FREQUENCIES
Type APP Name ALGER APP Frequency 121.4 MHZ
Type GND Name ALGER GND Frequency 121.8 MHZ
Type TWR Name ALGER TWR Frequency 118.7 MHZ

 AIRPORT NEAR NAVIGATION AIDS
Type VOR-DME Name Alger Frequency 112500 KHZ
Type NDB Name Houari Boumediene Frequency 416 KHZ
Type VOR Name Alger Frequency 113900 KHZ
Type NDB Name Houari Boumediene Frequency 370 KHZ